Time;durP1;ratioP1;P1;durP2;ratioP2;P2;SDS_P1;SDS_P2;PMS_P1;PMS_P2;Temp;Humidity;BMP_temperature;BMP_pressure;BME280_temperature;BME280_humidity;BME280_pressure;Samples;Min_cycle;Max_cycle;Signal;HPM_P1;HPM_P2
2022/11/03 00:02:28;;;;;;;2.85;0.82;;;;;;;;;;4875674;29;20062;-73
2022/11/03 00:06:03;;;;;;;3.63;1.00;;;;;;;;;;4876047;29;20436;-76
2022/11/03 00:07:48;;;;;;;5.30;0.95;;;;;;;;;;4876269;29;20056;-74
2022/11/03 00:10:18;;;;;;;4.57;0.70;;;;;;;;;;4876338;29;20049;-74
2022/11/03 00:12:47;;;;;;;1.77;0.50;;;;;;;;;;4875428;29;20637;-73
2022/11/03 00:15:18;;;;;;;1.65;0.80;;;;;;;;;;4875217;29;20504;-75
2022/11/03 00:17:48;;;;;;;1.58;0.68;;;;;;;;;;4874420;29;20409;-73
2022/11/03 00:20:21;;;;;;;2.58;0.75;;;;;;;;;;4874698;29;20053;-75
2022/11/03 00:22:51;;;;;;;1.98;0.70;;;;;;;;;;4874305;29;20057;-74
2022/11/03 00:25:21;;;;;;;2.65;0.80;;;;;;;;;;4874829;29;20161;-73
2022/11/03 00:27:55;;;;;;;2.35;0.57;;;;;;;;;;4874337;29;20064;-74
2022/11/03 00:30:25;;;;;;;2.72;0.57;;;;;;;;;;4875299;29;20531;-76
2022/11/03 00:32:57;;;;;;;4.75;0.73;;;;;;;;;;4875193;29;20154;-76
2022/11/03 00:35:27;;;;;;;1.42;0.73;;;;;;;;;;4873819;29;20053;-74
2022/11/03 00:37:57;;;;;;;2.20;0.80;;;;;;;;;;4874762;29;20064;-75
2022/11/03 00:40:27;;;;;;;0.75;0.30;;;;;;;;;;4874779;29;20056;-74
2022/11/03 00:42:57;;;;;;;3.88;0.90;;;;;;;;;;4873120;29;20492;-74
2022/11/03 00:45:27;;;;;;;4.40;0.50;;;;;;;;;;4873825;29;20045;-75
2022/11/03 00:50:45;;;;;;;3.92;0.80;;;;;;;;;;4875017;29;20064;-73
2022/11/03 00:53:15;;;;;;;2.28;1.00;;;;;;;;;;4873569;29;20060;-73
2022/11/03 00:55:48;;;;;;;;;;;;;;;;;;4875374;29;20063;-75
2022/11/03 00:58:19;;;;;;;0.98;0.55;;;;;;;;;;4875242;29;20318;-73
2022/11/03 01:00:49;;;;;;;1.35;0.80;;;;;;;;;;4875166;29;20041;-74
2022/11/03 01:03:19;;;;;;;1.15;0.60;;;;;;;;;;4875100;29;20424;-76
2022/11/03 01:08:39;;;;;;;1.73;0.70;;;;;;;;;;4874472;29;20540;-75
2022/11/03 01:14:01;;;;;;;1.23;0.63;;;;;;;;;;4874014;29;20575;-73
2022/11/03 01:16:31;;;;;;;1.58;0.70;;;;;;;;;;4875023;29;20060;-73
2022/11/03 01:19:02;;;;;;;0.90;0.60;;;;;;;;;;4874223;29;20049;-75
2022/11/03 01:21:31;;;;;;;1.17;0.70;;;;;;;;;;4875171;29;20057;-74
2022/11/03 01:24:03;;;;;;;0.75;0.20;;;;;;;;;;4874925;29;20401;-74
2022/11/03 01:26:33;;;;;;;1.42;0.45;;;;;;;;;;4874396;29;20421;-73
2022/11/03 01:29:04;;;;;;;1.30;0.60;;;;;;;;;;4874501;29;20080;-75
2022/11/03 01:31:34;;;;;;;5.55;0.80;;;;;;;;;;4874490;29;20488;-76
2022/11/03 01:34:04;;;;;;;6.82;0.90;;;;;;;;;;4874399;29;20536;-73
2022/11/03 01:36:34;;;;;;;4.72;0.70;;;;;;;;;;4874023;29;20072;-73
2022/11/03 01:39:04;;;;;;;;;;;;;;;;;;4874919;29;20049;-74
2022/11/03 01:41:35;;;;;;;6.00;0.60;;;;;;;;;;4874267;29;20310;-76
2022/11/03 01:44:07;;;;;;;;;;;;;;;;;;4874689;29;20057;-73
2022/11/03 01:46:51;;;;;;;2.13;0.75;;;;;;;;;;4903979;29;19931;-75
2022/11/03 01:49:49;;;;;;;4.22;0.45;;;;;;;;;;4874419;29;20053;-74
2022/11/03 01:52:35;;;;;;;3.95;0.50;;;;;;;;;;4873537;29;20044;-73
2022/11/03 01:55:13;;;;;;;3.25;0.90;;;;;;;;;;4874222;29;20057;-74
2022/11/03 01:57:53;;;;;;;2.55;0.85;;;;;;;;;;4873891;29;20053;-75
2022/11/03 02:00:23;;;;;;;7.63;0.80;;;;;;;;;;4871268;29;20060;-74
2022/11/03 02:02:53;;;;;;;;;;;;;;;;;;4871405;29;20496;-73
2022/11/03 02:05:26;;;;;;;3.55;0.70;;;;;;;;;;4871892;29;19932;-75
2022/11/03 02:08:07;;;;;;;1.58;0.55;;;;;;;;;;4883145;29;20077;-73
2022/11/03 02:10:39;;;;;;;1.95;0.50;;;;;;;;;;4885440;29;20052;-72
2022/11/03 02:13:28;;;;;;;1.52;0.65;;;;;;;;;;4880313;29;20055;-74
2022/11/03 02:15:59;;;;;;;0.77;0.63;;;;;;;;;;4877483;29;20049;-75
2022/11/03 02:18:33;;;;;;;2.15;0.75;;;;;;;;;;4873640;29;20060;-75
2022/11/03 02:21:15;;;;;;;4.47;0.50;;;;;;;;;;4873515;29;20535;-74
2022/11/03 02:24:14;;;;;;;1.40;0.52;;;;;;;;;;4873029;29;20049;-73
2022/11/03 02:26:48;;;;;;;1.13;0.68;;;;;;;;;;4873657;29;20535;-73
2022/11/03 02:29:18;;;;;;;2.13;0.63;;;;;;;;;;4873889;29;20057;-73
2022/11/03 02:31:56;;;;;;;2.72;0.43;;;;;;;;;;4872748;29;20056;-74
2022/11/03 02:34:48;;;;;;;3.00;1.35;;;;;;;;;;4874084;29;20055;-74
2022/11/03 02:37:29;;;;;;;4.57;1.05;;;;;;;;;;4873669;29;20037;-73
2022/11/03 02:40:13;;;;;;;0.73;0.43;;;;;;;;;;4873227;29;20057;-73
2022/11/03 02:42:47;;;;;;;2.72;0.88;;;;;;;;;;4873234;29;20509;-75
2022/11/03 02:45:21;;;;;;;2.08;0.73;;;;;;;;;;4873305;29;20060;-74
2022/11/03 02:47:54;;;;;;;2.80;0.52;;;;;;;;;;4873455;29;20053;-74
2022/11/03 02:50:29;;;;;;;6.60;0.80;;;;;;;;;;4873273;29;20045;-73
2022/11/03 02:53:00;;;;;;;1.02;0.50;;;;;;;;;;4872672;29;20385;-75
2022/11/03 02:55:45;;;;;;;3.05;0.93;;;;;;;;;;4873678;29;20052;-72
2022/11/03 02:58:32;;;;;;;2.80;0.43;;;;;;;;;;4873256;29;20413;-75
2022/11/03 03:01:13;;;;;;;2.97;0.93;;;;;;;;;;4872900;29;20100;-73
2022/11/03 03:03:53;;;;;;;2.50;0.98;;;;;;;;;;4872757;29;20061;-74
2022/11/03 03:06:34;;;;;;;2.78;0.75;;;;;;;;;;4873148;29;20151;-75
2022/11/03 03:09:10;;;;;;;1.15;0.60;;;;;;;;;;4873145;29;20404;-72
2022/11/03 03:11:42;;;;;;;6.18;0.93;;;;;;;;;;4871109;29;20083;-74
2022/11/03 03:14:23;;;;;;;7.75;1.00;;;;;;;;;;4873144;29;20052;-74
2022/11/03 03:17:10;;;;;;;3.60;1.00;;;;;;;;;;4873031;29;20116;-75
2022/11/03 03:20:00;;;;;;;3.55;1.02;;;;;;;;;;4873625;29;20057;-73
2022/11/03 03:23:16;;;;;;;6.07;0.88;;;;;;;;;;4902197;29;20045;-73
2022/11/03 03:25:54;;;;;;;1.00;0.63;;;;;;;;;;4872322;29;20418;-72
2022/11/03 03:28:32;;;;;;;3.22;0.70;;;;;;;;;;4872712;29;20049;-75
2022/11/03 03:31:07;;;;;;;2.05;1.00;;;;;;;;;;4871383;29;20057;-74
2022/11/03 03:33:39;;;;;;;2.03;0.82;;;;;;;;;;4902019;29;20060;-74
2022/11/03 03:36:18;;;;;;;1.55;0.70;;;;;;;;;;4875262;29;20052;-73
2022/11/03 03:38:54;;;;;;;2.30;1.00;;;;;;;;;;4876260;29;20390;-73
2022/11/03 03:41:25;;;;;;;;;;;;;;;;;;4877214;29;20049;-75
2022/11/03 03:43:59;;;;;;;5.60;0.73;;;;;;;;;;4876983;29;20357;-74
2022/11/03 03:46:34;;;;;;;2.95;0.80;;;;;;;;;;4876230;29;20045;-72
2022/11/03 03:49:05;;;;;;;2.50;1.00;;;;;;;;;;4876108;29;20065;-76
2022/11/03 03:51:37;;;;;;;3.92;0.55;;;;;;;;;;4876000;29;20495;-76
2022/11/03 03:54:07;;;;;;;4.40;1.10;;;;;;;;;;4875488;29;20061;-75
2022/11/03 03:56:42;;;;;;;6.65;1.30;;;;;;;;;;4876294;29;20045;-72
2022/11/03 03:59:15;;;;;;;;;;;;;;;;;;4876891;29;20049;-74
2022/11/03 04:01:46;;;;;;;3.08;1.02;;;;;;;;;;4875896;29;20401;-72
2022/11/03 04:04:17;;;;;;;5.40;1.40;;;;;;;;;;4875771;29;20392;-73
2022/11/03 04:06:48;;;;;;;5.68;1.35;;;;;;;;;;4876216;29;20056;-77
2022/11/03 04:09:17;;;;;;;4.28;1.77;;;;;;;;;;4876484;29;20523;-76
2022/11/03 04:23:02;;;;;;;2.00;1.30;;;;;;;;;;4876137;29;20057;-74
2022/11/03 04:25:31;;;;;;;4.35;1.00;;;;;;;;;;4875212;29;20061;-74
2022/11/03 04:28:07;;;;;;;1.48;0.98;;;;;;;;;;4875739;29;20521;-76
2022/11/03 04:30:37;;;;;;;6.05;1.00;;;;;;;;;;4875575;29;20056;-75
2022/11/03 04:33:22;;;;;;;4.22;0.85;;;;;;;;;;4876769;29;20057;-75
2022/11/03 04:35:57;;;;;;;3.13;1.02;;;;;;;;;;4876054;29;20048;-73
2022/11/03 04:38:29;;;;;;;6.78;1.90;;;;;;;;;;4875632;29;20405;-73
2022/11/03 04:40:59;;;;;;;4.18;0.90;;;;;;;;;;4873875;29;20401;-73
2022/11/03 04:43:33;;;;;;;1.38;0.63;;;;;;;;;;4875544;29;20052;-74
2022/11/03 04:46:05;;;;;;;3.22;0.75;;;;;;;;;;4875096;29;20479;-73
2022/11/03 04:48:35;;;;;;;1.17;0.60;;;;;;;;;;4875351;29;20060;-74
2022/11/03 04:51:19;;;;;;;2.05;0.70;;;;;;;;;;4875458;29;20509;-75
2022/11/03 04:53:54;;;;;;;3.78;0.70;;;;;;;;;;4874707;29;20572;-73
2022/11/03 04:56:35;;;;;;;2.40;0.55;;;;;;;;;;4875678;29;20408;-75
2022/11/03 04:59:28;;;;;;;3.08;0.60;;;;;;;;;;4880400;29;20883;-73
2022/11/03 05:02:18;;;;;;;0.88;0.52;;;;;;;;;;4876962;29;20432;-74
2022/11/03 05:05:20;;;;;;;2.78;0.80;;;;;;;;;;4875402;29;20056;-73
2022/11/03 05:08:08;;;;;;;2.30;0.50;;;;;;;;;;4875515;29;20060;-74
2022/11/03 05:10:58;;;;;;;0.85;0.70;;;;;;;;;;4875014;29;20056;-73
2022/11/03 05:13:41;;;;;;;1.65;0.70;;;;;;;;;;4875474;29;20496;-74
2022/11/03 05:16:32;;;;;;;1.25;0.70;;;;;;;;;;4874843;29;20077;-72
2022/11/03 05:19:23;;;;;;;1.10;0.55;;;;;;;;;;4874996;29;20057;-73
2022/11/03 05:22:21;;;;;;;2.25;0.68;;;;;;;;;;4873932;29;20064;-73
2022/11/03 05:25:42;;;;;;;0.85;0.70;;;;;;;;;;4874976;29;20049;-72
2022/11/03 05:28:39;;;;;;;4.35;0.60;;;;;;;;;;4874703;29;20053;-73
2022/11/03 05:31:27;;;;;;;3.30;0.68;;;;;;;;;;4874694;29;20048;-74
2022/11/03 05:34:35;;;;;;;3.42;0.70;;;;;;;;;;4874784;29;20538;-74
2022/11/03 05:37:29;;;;;;;1.13;0.47;;;;;;;;;;4874555;29;20048;-74
2022/11/03 05:40:29;;;;;;;1.08;0.75;;;;;;;;;;4874630;29;20041;-74
2022/11/03 05:43:14;;;;;;;1.92;0.77;;;;;;;;;;4874403;29;20041;-76
2022/11/03 05:46:08;;;;;;;3.80;1.02;;;;;;;;;;4874363;29;20515;-76
2022/11/03 05:48:52;;;;;;;1.52;0.90;;;;;;;;;;4874062;29;20053;-73
2022/11/03 05:51:46;;;;;;;9.02;1.08;;;;;;;;;;4874615;29;20052;-73
2022/11/03 05:54:34;;;;;;;4.63;1.23;;;;;;;;;;4873170;29;20057;-74
2022/11/03 05:57:24;;;;;;;3.25;1.10;;;;;;;;;;4874043;29;20045;-73
2022/11/03 06:00:39;;;;;;;2.00;0.80;;;;;;;;;;4872275;29;20061;-74
2022/11/03 06:03:34;;;;;;;1.77;1.00;;;;;;;;;;4874287;29;20063;-72
2022/11/03 06:06:25;;;;;;;5.45;1.20;;;;;;;;;;4874040;29;20775;-74
2022/11/03 06:09:25;;;;;;;4.47;0.88;;;;;;;;;;4874150;29;20068;-72
2022/11/03 06:12:15;;;;;;;2.50;1.15;;;;;;;;;;4873985;29;20059;-73
2022/11/03 06:15:04;;;;;;;4.68;0.63;;;;;;;;;;4873966;29;20408;-73
2022/11/03 06:17:48;;;;;;;4.80;0.98;;;;;;;;;;4874722;29;20049;-74
2022/11/03 06:20:37;;;;;;;3.53;1.00;;;;;;;;;;4872462;29;20532;-72
2022/11/03 06:23:21;;;;;;;3.13;1.15;;;;;;;;;;4873817;29;20053;-74
2022/11/03 06:26:25;;;;;;;2.90;0.70;;;;;;;;;;4873723;29;20052;-73
2022/11/03 06:29:18;;;;;;;2.13;0.70;;;;;;;;;;4874219;29;20052;-74
2022/11/03 06:32:08;;;;;;;2.15;0.90;;;;;;;;;;4873309;29;20520;-73
2022/11/03 06:34:55;;;;;;;3.33;0.88;;;;;;;;;;4873976;29;20057;-75
2022/11/03 06:37:46;;;;;;;4.18;0.98;;;;;;;;;;4873499;29;20428;-74
2022/11/03 06:40:37;;;;;;;4.30;1.35;;;;;;;;;;4873192;29;20053;-73
2022/11/03 06:43:45;;;;;;;3.97;1.33;;;;;;;;;;4872562;29;20072;-75
2022/11/03 06:46:31;;;;;;;3.80;1.58;;;;;;;;;;4873202;29;20045;-76
2022/11/03 06:49:39;;;;;;;5.05;1.70;;;;;;;;;;4873160;29;20060;-75
2022/11/03 06:52:24;;;;;;;2.53;1.23;;;;;;;;;;4872917;29;20064;-73
2022/11/03 06:55:29;;;;;;;4.25;1.98;;;;;;;;;;4871636;29;20072;-73
2022/11/03 06:58:27;;;;;;;5.43;2.20;;;;;;;;;;4872899;29;20060;-73
2022/11/03 07:01:27;;;;;;;5.65;1.70;;;;;;;;;;4872981;29;20056;-72
2022/11/03 07:04:19;;;;;;;4.60;1.75;;;;;;;;;;4872893;29;20057;-74
2022/11/03 07:07:16;;;;;;;5.35;1.55;;;;;;;;;;4872701;29;20060;-74
2022/11/03 07:09:54;;;;;;;5.03;1.10;;;;;;;;;;4872828;29;20412;-72
2022/11/03 07:12:50;;;;;;;4.20;1.80;;;;;;;;;;4872855;29;20052;-74
2022/11/03 07:15:38;;;;;;;5.03;1.67;;;;;;;;;;4872475;29;20049;-75
2022/11/03 07:18:41;;;;;;;5.65;1.70;;;;;;;;;;4872942;29;20064;-73
2022/11/03 07:21:29;;;;;;;3.33;1.48;;;;;;;;;;4872692;29;20059;-73
2022/11/03 07:24:40;;;;;;;4.35;1.85;;;;;;;;;;4871724;29;20056;-72
2022/11/03 07:27:16;;;;;;;6.85;1.80;;;;;;;;;;4872573;29;20057;-74
2022/11/03 07:30:21;;;;;;;3.17;1.63;;;;;;;;;;4872616;29;20059;-73
2022/11/03 07:33:08;;;;;;;6.22;1.50;;;;;;;;;;4873218;29;20053;-75
2022/11/03 07:36:05;;;;;;;5.10;1.50;;;;;;;;;;4872815;29;20650;-73
2022/11/03 07:38:53;;;;;;;3.95;1.40;;;;;;;;;;4872931;29;20080;-74
2022/11/03 07:41:49;;;;;;;3.22;1.40;;;;;;;;;;4871370;29;20065;-75
2022/11/03 07:44:29;;;;;;;1.83;1.05;;;;;;;;;;4880315;29;21019;-73
2022/11/03 07:47:27;;;;;;;3.55;1.10;;;;;;;;;;4875319;29;20057;-73
2022/11/03 07:50:14;;;;;;;2.15;1.35;;;;;;;;;;4872830;29;20064;-73
2022/11/03 07:53:18;;;;;;;2.72;1.58;;;;;;;;;;4872850;29;20052;-71
2022/11/03 07:56:47;;;;;;;4.63;1.33;;;;;;;;;;4873025;29;20056;-72
2022/11/03 07:59:45;;;;;;;5.47;1.40;;;;;;;;;;4872934;29;20523;-74
2022/11/03 08:02:36;;;;;;;2.72;1.17;;;;;;;;;;4872595;29;20045;-75
2022/11/03 08:05:26;;;;;;;6.70;1.55;;;;;;;;;;4872567;29;20056;-73
2022/11/03 08:08:10;;;;;;;4.35;1.20;;;;;;;;;;4872930;29;20056;-72
2022/11/03 08:10:59;;;;;;;3.67;0.90;;;;;;;;;;4871136;29;20563;-74
2022/11/03 08:13:42;;;;;;;1.90;0.85;;;;;;;;;;4872210;29;20053;-75
2022/11/03 08:16:32;;;;;;;10.05;1.20;;;;;;;;;;4871938;29;20053;-74
2022/11/03 08:19:15;;;;;;;2.88;0.95;;;;;;;;;;4872822;29;20053;-71
2022/11/03 08:22:05;;;;;;;2.88;0.98;;;;;;;;;;4874274;29;20056;-72
2022/11/03 08:24:48;;;;;;;2.60;1.10;;;;;;;;;;4876199;29;20045;-72
2022/11/03 08:27:38;;;;;;;2.53;1.08;;;;;;;;;;4876316;29;20056;-72
2022/11/03 08:30:21;;;;;;;2.70;1.10;;;;;;;;;;4873926;29;20056;-73
2022/11/03 08:33:11;;;;;;;5.88;1.30;;;;;;;;;;4876075;29;20141;-72
2022/11/03 08:35:54;;;;;;;2.53;1.33;;;;;;;;;;4875442;29;20057;-74
2022/11/03 08:38:44;;;;;;;4.15;1.27;;;;;;;;;;4875448;29;20049;-72
2022/11/03 08:41:27;;;;;;;7.15;1.10;;;;;;;;;;4903671;29;20052;-73
2022/11/03 08:44:17;;;;;;;1.83;1.15;;;;;;;;;;4875648;29;20059;-74
2022/11/03 08:47:00;;;;;;;1.02;0.80;;;;;;;;;;4875807;29;20366;-73
2022/11/03 08:49:51;;;;;;;4.75;1.52;;;;;;;;;;4875541;29;20080;-73
2022/11/03 08:52:34;;;;;;;3.50;1.15;;;;;;;;;;4875645;29;20052;-75
2022/11/03 08:55:31;;;;;;;3.78;1.02;;;;;;;;;;4874554;29;20068;-73
2022/11/03 08:58:08;;;;;;;3.90;1.08;;;;;;;;;;4875421;29;20420;-74
2022/11/03 09:01:06;;;;;;;2.50;1.35;;;;;;;;;;4874867;29;20071;-73
2022/11/03 09:03:43;;;;;;;5.03;1.33;;;;;;;;;;4874790;29;20041;-74
2022/11/03 09:06:40;;;;;;;2.80;1.45;;;;;;;;;;4875303;29;20068;-73
2022/11/03 09:09:16;;;;;;;3.20;1.48;;;;;;;;;;4875503;29;20057;-73
2022/11/03 09:12:32;;;;;;;3.90;1.25;;;;;;;;;;4875317;29;20060;-73
2022/11/03 09:15:09;;;;;;;12.68;1.63;;;;;;;;;;4875607;29;20068;-75
2022/11/03 09:18:05;;;;;;;3.92;1.42;;;;;;;;;;4874952;29;20056;-74
2022/11/03 09:20:43;;;;;;;6.80;1.30;;;;;;;;;;4875143;29;20542;-74
2022/11/03 09:23:39;;;;;;;5.53;1.75;;;;;;;;;;4875565;29;20075;-73
2022/11/03 09:26:15;;;;;;;7.85;2.38;;;;;;;;;;4875093;29;20057;-74
2022/11/03 09:29:12;;;;;;;7.55;2.53;;;;;;;;;;4874617;29;20052;-73
2022/11/03 09:31:49;;;;;;;6.75;1.88;;;;;;;;;;4887804;29;20063;-75
2022/11/03 09:34:45;;;;;;;12.23;2.55;;;;;;;;;;4874417;29;20487;-72
2022/11/03 09:37:23;;;;;;;3.53;1.80;;;;;;;;;;4874586;29;20048;-77
2022/11/03 09:40:24;;;;;;;4.00;1.67;;;;;;;;;;4874678;29;20048;-72
2022/11/03 09:43:01;;;;;;;5.35;1.80;;;;;;;;;;4874437;29;20052;-77
2022/11/03 09:45:57;;;;;;;12.07;2.72;;;;;;;;;;4874413;29;20068;-73
2022/11/03 09:48:34;;;;;;;2.72;1.40;;;;;;;;;;4873440;29;20152;-73
2022/11/03 09:51:32;;;;;;;4.13;1.30;;;;;;;;;;4873392;29;20079;-75
2022/11/03 09:54:16;;;;;;;18.58;2.10;;;;;;;;;;4873267;29;20080;-75
2022/11/03 09:57:16;;;;;;;9.75;3.10;;;;;;;;;;4874523;29;20056;-72
2022/11/03 09:59:59;;;;;;;12.05;1.77;;;;;;;;;;4874165;29;20390;-73
2022/11/03 10:02:49;;;;;;;5.13;2.30;;;;;;;;;;4874291;29;20056;-72
2022/11/03 10:05:33;;;;;;;6.38;1.83;;;;;;;;;;4873882;29;20064;-74
2022/11/03 10:08:31;;;;;;;8.52;2.10;;;;;;;;;;4873982;29;20064;-75
2022/11/03 10:11:15;;;;;;;4.72;2.30;;;;;;;;;;4873539;29;20048;-75
2022/11/03 10:14:05;;;;;;;5.63;2.22;;;;;;;;;;4873806;29;20056;-73
2022/11/03 10:16:58;;;;;;;4.80;1.60;;;;;;;;;;4873472;29;20049;-75
2022/11/03 10:19:48;;;;;;;4.43;1.55;;;;;;;;;;4874108;29;20057;-74
2022/11/03 10:22:32;;;;;;;4.07;1.45;;;;;;;;;;4874198;29;20581;-77
2022/11/03 10:25:46;;;;;;;2.63;0.93;;;;;;;;;;4876198;29;20480;-74
2022/11/03 10:28:30;;;;;;;5.38;1.83;;;;;;;;;;4877167;29;20045;-73
2022/11/03 10:31:26;;;;;;;5.13;1.60;;;;;;;;;;4873306;29;20060;-74
2022/11/03 10:34:36;;;;;;;2.92;1.30;;;;;;;;;;4873697;29;20504;-72
2022/11/03 10:37:29;;;;;;;3.15;1.00;;;;;;;;;;4873671;29;20083;-75
2022/11/03 10:40:34;;;;;;;9.13;1.73;;;;;;;;;;4873450;29;20402;-73
2022/11/03 10:43:28;;;;;;;6.07;1.83;;;;;;;;;;4873680;29;20587;-74
2022/11/03 10:46:14;;;;;;;8.90;1.60;;;;;;;;;;4873871;29;20053;-75
2022/11/03 10:49:25;;;;;;;8.98;1.88;;;;;;;;;;4873503;29;20053;-74
2022/11/03 10:52:23;;;;;;;5.10;1.00;;;;;;;;;;4871383;29;20061;-72
2022/11/03 10:55:10;;;;;;;10.63;2.00;;;;;;;;;;4872803;29;20481;-75
2022/11/03 10:57:41;;;;;;;5.72;2.35;;;;;;;;;;4872995;29;20053;-76
2022/11/03 11:00:16;;;;;;;4.65;1.88;;;;;;;;;;4873176;29;20057;-74
2022/11/03 11:02:46;;;;;;;;;;;;;;;;;;4873918;29;20048;-75
2022/11/03 11:05:21;;;;;;;4.55;1.25;;;;;;;;;;4872915;29;19934;-72
2022/11/03 11:07:53;;;;;;;3.70;1.13;;;;;;;;;;4873308;29;20508;-74
2022/11/03 11:10:24;;;;;;;5.82;1.13;;;;;;;;;;4873227;29;20052;-74
2022/11/03 11:13:18;;;;;;;2.67;1.08;;;;;;;;;;4871556;29;20060;-75
2022/11/03 11:15:50;;;;;;;3.40;1.30;;;;;;;;;;4872774;29;20052;-73
2022/11/03 11:18:30;;;;;;;4.90;1.10;;;;;;;;;;4873094;29;20056;-74
2022/11/03 11:21:20;;;;;;;3.20;1.10;;;;;;;;;;4872574;29;20056;-73
2022/11/03 11:23:51;;;;;;;2.60;1.02;;;;;;;;;;4872855;29;20049;-73
2022/11/03 11:26:31;;;;;;;4.13;1.30;;;;;;;;;;4873007;29;20057;-75
2022/11/03 11:29:12;;;;;;;11.32;3.95;;;;;;;;;;4902407;29;20520;-74
2022/11/03 11:31:43;;;;;;;4.80;1.95;;;;;;;;;;4872931;29;20408;-76
2022/11/03 11:34:17;;;;;;;5.13;1.55;;;;;;;;;;4873303;29;20053;-73
2022/11/03 11:37:09;;;;;;;5.25;3.13;;;;;;;;;;4871821;29;20067;-75
2022/11/03 11:39:42;;;;;;;5.05;3.25;;;;;;;;;;4873188;29;20515;-73
2022/11/03 11:42:19;;;;;;;3.08;1.40;;;;;;;;;;4872898;29;20053;-74
2022/11/03 11:44:56;;;;;;;3.28;1.50;;;;;;;;;;4872749;29;20049;-75
2022/11/03 11:47:48;;;;;;;6.72;3.13;;;;;;;;;;4872615;29;20048;-74
2022/11/03 11:50:24;;;;;;;3.67;1.67;;;;;;;;;;4872275;29;20057;-73
2022/11/03 11:53:01;;;;;;;6.47;1.77;;;;;;;;;;4872575;29;20052;-73
2022/11/03 11:55:41;;;;;;;4.28;1.45;;;;;;;;;;4872929;29;20061;-74
2022/11/03 11:58:30;;;;;;;8.25;1.83;;;;;;;;;;4876240;29;20061;-73
2022/11/03 12:01:04;;;;;;;3.78;1.63;;;;;;;;;;4876145;29;20045;-74
2022/11/03 12:03:41;;;;;;;4.93;1.90;;;;;;;;;;4875802;29;20057;-74
2022/11/03 12:06:15;;;;;;;4.78;1.58;;;;;;;;;;4906397;29;20049;-74
2022/11/03 12:08:45;;;;;;;5.70;2.28;;;;;;;;;;4876099;29;20049;-75
2022/11/03 12:11:14;;;;;;;7.28;2.67;;;;;;;;;;4876039;29;20041;-75
2022/11/03 12:13:52;;;;;;;6.63;3.20;;;;;;;;;;4876221;29;20058;-75
2022/11/03 12:16:30;;;;;;;7.07;3.00;;;;;;;;;;4875906;29;20084;-74
2022/11/03 12:19:37;;;;;;;6.65;2.38;;;;;;;;;;4876650;29;20041;-77
2022/11/03 12:22:22;;;;;;;11.02;2.92;;;;;;;;;;4875480;29;20057;-75
2022/11/03 12:24:59;;;;;;;7.30;2.70;;;;;;;;;;4875153;29;20500;-75
2022/11/03 12:27:29;;;;;;;4.93;1.88;;;;;;;;;;4873455;29;20532;-74
2022/11/03 12:30:01;;;;;;;6.10;2.47;;;;;;;;;;4875485;29;20519;-74
2022/11/03 12:32:31;;;;;;;5.43;2.20;;;;;;;;;;4875714;29;20068;-75
2022/11/03 12:35:05;;;;;;;2.85;2.10;;;;;;;;;;4875504;29;20049;-74
2022/11/03 12:37:36;;;;;;;6.60;2.55;;;;;;;;;;4875628;29;20045;-74
2022/11/03 12:40:06;;;;;;;4.07;1.63;;;;;;;;;;4874290;29;20069;-74
2022/11/03 12:42:36;;;;;;;6.43;2.33;;;;;;;;;;4875716;29;20045;-81
2022/11/03 12:45:07;;;;;;;5.93;1.80;;;;;;;;;;4905233;29;20531;-75
2022/11/03 12:47:37;;;;;;;6.80;1.85;;;;;;;;;;4875126;29;20513;-74
2022/11/03 12:50:07;;;;;;;3.92;2.03;;;;;;;;;;4876297;29;20052;-74
2022/11/03 12:52:37;;;;;;;3.90;2.22;;;;;;;;;;4875502;29;20060;-82
2022/11/03 12:55:08;;;;;;;4.15;1.90;;;;;;;;;;4875558;29;20049;-79
2022/11/03 12:57:39;;;;;;;3.40;1.00;;;;;;;;;;4875510;29;20064;-74
2022/11/03 13:00:09;;;;;;;4.43;1.23;;;;;;;;;;4875377;29;20076;-74
2022/11/03 13:02:39;;;;;;;7.85;3.15;;;;;;;;;;4875327;29;20049;-74
2022/11/03 13:05:14;;;;;;;5.65;1.60;;;;;;;;;;4875015;29;20057;-74
2022/11/03 13:07:44;;;;;;;6.80;1.83;;;;;;;;;;4874491;29;20420;-75
2022/11/03 13:10:13;;;;;;;5.03;2.28;;;;;;;;;;4874946;29;20049;-75
2022/11/03 13:12:44;;;;;;;5.68;1.60;;;;;;;;;;4874908;29;20517;-75
2022/11/03 13:15:14;;;;;;;2.40;1.30;;;;;;;;;;4877990;29;20049;-73
2022/11/03 13:17:45;;;;;;;4.55;1.42;;;;;;;;;;4876994;29;20072;-72
2022/11/03 13:20:36;;;;;;;2.97;1.33;;;;;;;;;;4874823;29;20045;-75
2022/11/03 13:23:06;;;;;;;4.00;1.05;;;;;;;;;;4874205;29;20068;-76
2022/11/03 13:25:38;;;;;;;3.50;1.10;;;;;;;;;;4875121;29;20056;-76
2022/11/03 13:28:08;;;;;;;4.93;1.52;;;;;;;;;;4874418;29;20052;-76
2022/11/03 13:30:39;;;;;;;2.47;1.00;;;;;;;;;;4875026;29;20072;-75
2022/11/03 13:33:10;;;;;;;2.28;0.93;;;;;;;;;;4874446;29;20057;-75
2022/11/03 13:35:39;;;;;;;6.35;1.00;;;;;;;;;;4874296;29;20052;-75
2022/11/03 13:38:11;;;;;;;2.95;0.90;;;;;;;;;;4874402;29;20048;-75
2022/11/03 13:40:40;;;;;;;2.42;1.00;;;;;;;;;;4874034;29;20053;-75
2022/11/03 13:43:25;;;;;;;6.68;1.60;;;;;;;;;;4874675;29;20060;-75
2022/11/03 13:46:01;;;;;;;2.65;0.90;;;;;;;;;;4874102;29;20053;-75
2022/11/03 13:48:31;;;;;;;5.40;0.77;;;;;;;;;;4874548;29;20048;-75
2022/11/03 13:51:21;;;;;;;6.95;1.40;;;;;;;;;;4873697;29;20509;-75
2022/11/03 13:53:51;;;;;;;2.58;0.60;;;;;;;;;;4873827;29;20072;-75
2022/11/03 13:56:41;;;;;;;2.58;1.10;;;;;;;;;;4874002;29;20049;-74
2022/11/03 13:59:32;;;;;;;1.98;1.20;;;;;;;;;;4874531;29;20052;-75
2022/11/03 14:02:02;;;;;;;2.67;1.50;;;;;;;;;;4903747;29;20060;-75
2022/11/03 14:04:53;;;;;;;2.17;1.02;;;;;;;;;;4872992;29;20052;-75
2022/11/03 14:07:23;;;;;;;2.28;0.80;;;;;;;;;;4872429;29;20057;-76
2022/11/03 14:09:53;;;;;;;1.58;0.80;;;;;;;;;;4872658;29;20045;-75
2022/11/03 14:12:30;;;;;;;1.95;1.02;;;;;;;;;;4873856;29;20071;-74
2022/11/03 14:15:09;;;;;;;3.22;1.10;;;;;;;;;;4873675;29;20044;-75
2022/11/03 14:17:40;;;;;;;1.77;0.77;;;;;;;;;;4872302;29;20755;-75
2022/11/03 14:20:12;;;;;;;1.60;0.80;;;;;;;;;;4873340;29;20057;-75
2022/11/03 14:22:42;;;;;;;1.80;0.85;;;;;;;;;;4873951;29;20056;-76
2022/11/03 14:25:12;;;;;;;1.17;0.88;;;;;;;;;;4873609;29;20049;-78
2022/11/03 14:27:43;;;;;;;0.80;0.60;;;;;;;;;;4873034;29;20064;-75
2022/11/03 14:30:13;;;;;;;1.50;0.73;;;;;;;;;;4873663;29;20053;-74
2022/11/03 14:32:43;;;;;;;1.27;0.80;;;;;;;;;;4874220;29;20501;-75
2022/11/03 14:35:13;;;;;;;3.13;1.10;;;;;;;;;;4874220;29;20056;-76
2022/11/03 14:37:43;;;;;;;3.28;1.00;;;;;;;;;;4873690;29;20064;-75
2022/11/03 14:42:02;;;;;;;5.07;0.70;;;;;;;;;;4873974;29;20056;-76
2022/11/03 14:43:04;;;;;;;2.90;1.50;;;;;;;;;;4873392;29;20049;-77
2022/11/03 14:45:36;;;;;;;3.05;1.20;;;;;;;;;;4872903;29;20056;-76
2022/11/03 14:48:10;;;;;;;3.13;1.00;;;;;;;;;;4873898;29;20523;-76
2022/11/03 14:50:40;;;;;;;2.28;1.05;;;;;;;;;;4872726;29;20056;-75
2022/11/03 14:53:10;;;;;;;4.93;0.88;;;;;;;;;;4873180;29;20537;-75
2022/11/03 14:55:42;;;;;;;2.40;0.80;;;;;;;;;;4873068;29;20049;-75
2022/11/03 14:58:11;;;;;;;2.88;1.05;;;;;;;;;;4873631;29;20504;-76
2022/11/03 15:00:41;;;;;;;1.60;0.93;;;;;;;;;;4873043;29;20045;-75
2022/11/03 15:03:11;;;;;;;4.60;1.00;;;;;;;;;;4872917;29;20076;-75
2022/11/03 15:05:44;;;;;;;1.77;0.80;;;;;;;;;;4873086;29;20076;-78
2022/11/03 15:08:16;;;;;;;2.22;0.80;;;;;;;;;;4872985;29;20049;-76
2022/11/03 15:10:46;;;;;;;1.83;0.80;;;;;;;;;;4871408;29;20045;-75
2022/11/03 15:13:16;;;;;;;1.98;0.77;;;;;;;;;;4872817;29;20056;-76
2022/11/03 15:15:46;;;;;;;1.50;0.70;;;;;;;;;;4873362;29;20041;-75
2022/11/03 15:18:16;;;;;;;2.25;0.90;;;;;;;;;;4873048;29;20516;-76
2022/11/03 15:20:47;;;;;;;3.78;1.60;;;;;;;;;;4873311;29;20056;-75
2022/11/03 15:23:17;;;;;;;2.83;0.80;;;;;;;;;;4873261;29;20403;-75
2022/11/03 15:26:07;;;;;;;2.45;1.63;;;;;;;;;;4873210;29;20044;-75
2022/11/03 15:28:37;;;;;;;4.38;0.90;;;;;;;;;;4872671;29;20053;-76
2022/11/03 15:31:08;;;;;;;3.65;0.93;;;;;;;;;;4871924;29;20050;-77
2022/11/03 15:33:38;;;;;;;1.00;0.80;;;;;;;;;;4872617;29;20053;-75
2022/11/03 15:36:08;;;;;;;1.75;1.10;;;;;;;;;;4872777;29;20053;-75
2022/11/03 15:38:38;;;;;;;1.52;1.08;;;;;;;;;;4872503;29;20049;-76
2022/11/03 15:41:18;;;;;;;4.20;1.20;;;;;;;;;;4872080;29;20409;-76
2022/11/03 15:43:49;;;;;;;2.55;1.13;;;;;;;;;;4872481;29;20401;-76
2022/11/03 15:46:19;;;;;;;1.90;1.17;;;;;;;;;;4873301;29;20060;-76
2022/11/03 15:48:49;;;;;;;3.08;1.13;;;;;;;;;;4872866;29;20053;-76
2022/11/03 15:51:19;;;;;;;2.45;1.25;;;;;;;;;;4872526;29;20060;-73
2022/11/03 15:53:49;;;;;;;5.00;1.42;;;;;;;;;;4872526;29;20061;-75
2022/11/03 15:56:26;;;;;;;4.50;1.30;;;;;;;;;;4872999;29;20413;-75
2022/11/03 15:58:56;;;;;;;4.35;1.45;;;;;;;;;;4872412;29;20057;-75
2022/11/03 16:01:26;;;;;;;3.03;1.80;;;;;;;;;;4872499;29;20060;-77
2022/11/03 16:03:56;;;;;;;3.05;1.42;;;;;;;;;;4872440;29;20057;-75
2022/11/03 16:06:26;;;;;;;2.20;1.30;;;;;;;;;;4872786;29;20056;-75
2022/11/03 16:09:16;;;;;;;2.63;1.10;;;;;;;;;;4859067;29;20071;-76
2022/11/03 16:11:46;;;;;;;2.42;0.90;;;;;;;;;;4872712;29;20049;-72
2022/11/03 16:14:15;;;;;;;3.00;1.20;;;;;;;;;;4880438;29;20041;-75
2022/11/03 16:16:45;;;;;;;4.90;1.42;;;;;;;;;;4879031;29;20041;-75
2022/11/03 16:19:15;;;;;;;1.80;0.90;;;;;;;;;;4872149;29;20049;-76
2022/11/03 16:21:45;;;;;;;3.63;0.73;;;;;;;;;;4872338;29;20053;-75
2022/11/03 16:24:14;;;;;;;3.15;0.90;;;;;;;;;;4871256;29;20049;-75
2022/11/03 16:26:44;;;;;;;3.80;1.00;;;;;;;;;;4872273;29;20064;-73